Time;durP1;ratioP1;P1;durP2;ratioP2;P2;SDS_P1;SDS_P2;PMS_P1;PMS_P2;Temp;Humidity;BMP_temperature;BMP_pressure;BME280_temperature;BME280_humidity;BME280_pressure;Samples;Min_cycle;Max_cycle;Signal;HPM_P1;HPM_P2
2023/03/09 00:01:51;;;;;;;;;;;8.90;99.90;;;;;;4944185;28;19934;-73
2023/03/09 00:04:19;;;;;;;;;;;8.90;99.90;;;;;;4954085;28;20356;-71
2023/03/09 00:06:46;;;;;;;;;;;8.90;99.90;;;;;;4948593;28;19927;-70
2023/03/09 00:09:13;;;;;;;;;;;8.90;99.90;;;;;;4952696;28;19926;-71
2023/03/09 00:11:40;;;;;;;;;;;8.90;99.90;;;;;;4945122;28;20298;-71
2023/03/09 00:14:07;;;;;;;;;;;8.90;99.90;;;;;;4949220;28;19926;-72
2023/03/09 00:16:34;;;;;;;;;;;8.90;99.90;;;;;;4943528;28;20412;-71
2023/03/09 00:19:01;;;;;;;;;;;8.90;99.90;;;;;;4946843;28;19927;-72
2023/03/09 00:21:36;;;;;;;;;;;8.90;99.90;;;;;;4950488;28;20411;-71
2023/03/09 00:24:04;;;;;;;;;;;8.90;99.90;;;;;;4965495;28;19958;-71
2023/03/09 00:26:31;;;;;;;;;;;8.90;99.90;;;;;;4949075;28;20009;-72
2023/03/09 00:28:58;;;;;;;;;;;8.90;99.90;;;;;;4959396;28;19935;-71
2023/03/09 00:31:25;;;;;;;;;;;8.90;99.90;;;;;;4947623;28;19958;-71
2023/03/09 00:33:52;;;;;;;;;;;8.90;99.90;;;;;;4961648;28;19927;-71
2023/03/09 00:36:19;;;;;;;;;;;8.90;99.90;;;;;;4942832;28;19966;-71
2023/03/09 00:38:51;;;;;;;;;;;8.90;99.90;;;;;;4948314;28;19969;-72
2023/03/09 00:41:18;;;;;;;;;;;8.90;99.90;;;;;;4948070;28;20327;-71
2023/03/09 00:43:45;;;;;;;;;;;9.00;99.90;;;;;;4942205;28;19927;-71
2023/03/09 00:46:12;;;;;;;;;;;9.00;99.90;;;;;;4963628;28;19927;-71
2023/03/09 00:48:39;;;;;;;;;;;8.90;99.90;;;;;;4949873;28;20020;-71
2023/03/09 00:51:07;;;;;;;;;;;9.00;99.90;;;;;;4945423;28;20029;-71
2023/03/09 00:53:34;;;;;;;;;;;9.00;99.90;;;;;;4940729;28;19926;-71
2023/03/09 00:56:03;;;;;;;;;;;9.00;99.90;;;;;;4948236;28;19937;-71
2023/03/09 00:58:30;;;;;;;;;;;9.00;99.90;;;;;;4962073;28;19934;-72
2023/03/09 01:01:00;;;;;;;;;;;9.00;99.90;;;;;;4961678;28;20388;-71
2023/03/09 01:03:27;;;;;;;;;;;9.00;99.90;;;;;;4965811;28;19926;-72
2023/03/09 01:05:55;;;;;;;;;;;9.00;99.90;;;;;;4942543;28;19926;-72
2023/03/09 01:08:21;;;;;;;;;;;9.00;99.90;;;;;;4948143;28;20022;-71
2023/03/09 01:10:48;;;;;;;;;;;9.00;99.90;;;;;;4943506;28;20227;-71
2023/03/09 01:13:17;;;;;;;;;;;9.00;99.90;;;;;;4944603;28;19977;-71
2023/03/09 01:15:44;;;;;;;;;;;9.10;99.90;;;;;;4945531;28;21861;-71
2023/03/09 01:18:11;;;;;;;;;;;9.00;99.90;;;;;;4947006;28;20016;-71
2023/03/09 01:20:38;;;;;;;;;;;9.00;99.90;;;;;;4944395;28;20357;-71
2023/03/09 01:23:05;;;;;;;;;;;9.00;99.90;;;;;;4948218;28;20286;-72
2023/03/09 01:25:33;;;;;;;;;;;9.10;99.90;;;;;;4960445;28;19934;-72
2023/03/09 01:28:01;;;;;;;;;;;9.00;99.90;;;;;;4941770;28;20014;-72
2023/03/09 01:30:29;;;;;;;;;;;9.10;99.90;;;;;;4947825;28;20417;-71
2023/03/09 01:32:56;;;;;;;;;;;9.10;99.90;;;;;;4946652;28;20029;-72
2023/03/09 01:35:23;;;;;;;;;;;9.10;99.90;;;;;;4962313;28;19930;-74
2023/03/09 01:37:50;;;;;;;;;;;9.00;99.90;;;;;;4943347;28;20029;-72
2023/03/09 01:40:19;;;;;;;;;;;8.90;99.90;;;;;;4936245;28;19930;-72
2023/03/09 01:42:54;;;;;;;;;;;8.80;99.90;;;;;;4943324;28;19958;-71
2023/03/09 01:45:39;;;;;;;;;;;8.80;99.90;;;;;;4946282;28;19927;-72
2023/03/09 01:48:07;;;;;;;;;;;8.80;99.90;;;;;;4946127;28;20044;-73
2023/03/09 01:50:35;;;;;;;;;;;8.70;99.90;;;;;;4943210;28;19941;-73
2023/03/09 01:53:06;;;;;;;;;;;8.70;99.90;;;;;;4960239;28;19930;-72
2023/03/09 01:55:37;;;;;;;;;;;8.70;99.90;;;;;;4962310;28;19927;-76
2023/03/09 01:58:06;;;;;;;;;;;8.60;99.90;;;;;;4948529;28;19989;-74
2023/03/09 02:00:34;;;;;;;;;;;8.70;99.90;;;;;;4946190;28;19930;-72
2023/03/09 02:03:09;;;;;;;;;;;8.60;99.90;;;;;;4965859;28;20434;-73
2023/03/09 02:05:45;;;;;;;;;;;8.60;99.90;;;;;;4951719;28;19941;-73
2023/03/09 02:08:13;;;;;;;;;;;8.60;99.90;;;;;;4965054;28;20018;-72
2023/03/09 02:10:45;;;;;;;;;;;8.60;99.90;;;;;;4942375;28;20312;-73
2023/03/09 02:13:14;;;;;;;;;;;8.60;99.90;;;;;;4946827;28;19954;-72
2023/03/09 02:15:41;;;;;;;;;;;8.50;99.90;;;;;;4944456;28;19942;-72
2023/03/09 02:18:09;;;;;;;;;;;8.50;99.90;;;;;;4947326;28;19927;-72
2023/03/09 02:20:39;;;;;;;;;;;8.50;99.90;;;;;;4942486;28;19927;-72
2023/03/09 02:23:10;;;;;;;;;;;8.50;99.90;;;;;;4943575;28;19949;-72
2023/03/09 02:25:40;;;;;;;;;;;8.50;99.90;;;;;;4947628;28;19953;-72
2023/03/09 02:28:10;;;;;;;;;;;8.50;99.90;;;;;;4943661;28;19926;-72
2023/03/09 02:30:40;;;;;;;;;;;8.50;99.90;;;;;;4943248;28;19965;-72
2023/03/09 02:33:10;;;;;;;;;;;8.50;99.90;;;;;;4948411;28;21207;-72
2023/03/09 02:35:42;;;;;;;;;;;8.50;99.90;;;;;;4950708;28;19926;-71
2023/03/09 02:38:11;;;;;;;;;;;8.50;99.90;;;;;;4957212;28;19962;-72
2023/03/09 02:40:38;;;;;;;;;;;8.40;99.90;;;;;;4962437;28;19954;-72
2023/03/09 02:43:11;;;;;;;;;;;8.40;99.90;;;;;;4946240;28;20041;-73
2023/03/09 02:45:38;;;;;;;;;;;8.40;99.90;;;;;;4959204;28;19927;-72
2023/03/09 02:48:05;;;;;;;;;;;8.40;99.90;;;;;;4940135;28;19934;-72
2023/03/09 02:50:32;;;;;;;;;;;8.40;99.90;;;;;;4945697;28;19926;-72
2023/03/09 02:53:00;;;;;;;;;;;8.40;99.90;;;;;;4948353;28;19926;-73
2023/03/09 02:55:27;;;;;;;;;;;8.40;99.90;;;;;;4947335;28;19934;-73
2023/03/09 02:57:54;;;;;;;;;;;8.40;99.90;;;;;;4966505;28;19930;-72
2023/03/09 03:00:24;;;;;;;;;;;8.30;99.90;;;;;;4969292;28;19927;-72
2023/03/09 03:02:51;;;;;;;;;;;8.30;99.90;;;;;;4946948;28;19933;-73
2023/03/09 03:05:19;;;;;;;;;;;8.40;99.90;;;;;;4946484;28;20370;-72
2023/03/09 03:07:46;;;;;;;;;;;8.30;99.90;;;;;;4964237;28;19926;-72
2023/03/09 03:10:13;;;;;;;;;;;8.30;99.90;;;;;;4950251;28;19972;-72
2023/03/09 03:12:40;;;;;;;;;;;8.30;99.90;;;;;;4941972;28;19989;-72
2023/03/09 03:15:07;;;;;;;;;;;8.30;99.90;;;;;;4946029;28;19985;-73
2023/03/09 03:17:36;;;;;;;;;;;8.30;99.90;;;;;;4962653;28;20397;-73
2023/03/09 03:20:05;;;;;;;;;;;8.20;99.90;;;;;;4950337;28;19934;-73
2023/03/09 03:22:34;;;;;;;;;;;8.20;99.90;;;;;;4959012;28;20260;-72
2023/03/09 03:25:01;;;;;;;;;;;8.20;99.90;;;;;;4945313;28;19937;-72
2023/03/09 03:27:30;;;;;;;;;;;8.20;99.90;;;;;;4947642;28;19946;-72
2023/03/09 03:29:58;;;;;;;;;;;8.20;99.90;;;;;;4948458;28;19931;-72
2023/03/09 03:32:25;;;;;;;;;;;8.20;99.90;;;;;;4944861;28;19926;-72
2023/03/09 03:34:55;;;;;;;;;;;8.20;99.90;;;;;;4961203;28;19931;-72
2023/03/09 03:37:22;;;;;;;;;;;8.20;99.90;;;;;;4949393;28;19934;-72
2023/03/09 03:39:50;;;;;;;;;;;8.20;99.90;;;;;;4941585;28;19926;-73
2023/03/09 03:42:17;;;;;;;;;;;8.20;99.90;;;;;;4946495;28;19934;-72
2023/03/09 03:44:44;;;;;;;;;;;8.20;99.90;;;;;;4953839;28;19926;-72
2023/03/09 03:47:13;;;;;;;;;;;8.20;99.90;;;;;;4946676;28;19941;-72
2023/03/09 03:49:40;;;;;;;;;;;8.10;99.90;;;;;;4962373;28;19942;-71
2023/03/09 03:52:11;;;;;;;;;;;8.10;99.90;;;;;;4961769;28;19954;-72
2023/03/09 03:54:38;;;;;;;;;;;8.10;99.90;;;;;;4959485;28;19941;-72
2023/03/09 03:57:05;;;;;;;;;;;8.10;99.90;;;;;;4942726;28;19926;-73
2023/03/09 03:59:33;;;;;;;;;;;8.10;99.90;;;;;;4965950;28;20654;-72
2023/03/09 04:02:00;;;;;;;;;;;8.10;99.90;;;;;;4944123;28;19935;-72
2023/03/09 04:04:29;;;;;;;;;;;8.10;99.90;;;;;;4941465;28;19984;-72
2023/03/09 04:07:02;;;;;;;;;;;8.10;99.90;;;;;;4966796;28;19926;-72
2023/03/09 04:09:31;;;;;;;;;;;8.10;99.90;;;;;;4970244;28;20471;-72
2023/03/09 04:11:59;;;;;;;;;;;8.10;99.90;;;;;;4966494;28;19949;-72
2023/03/09 04:14:26;;;;;;;;;;;8.10;99.90;;;;;;4943112;28;20444;-72
2023/03/09 04:16:54;;;;;;;;;;;8.10;99.90;;;;;;4960306;28;20036;-71
2023/03/09 04:19:21;;;;;;;;;;;8.10;99.90;;;;;;4945453;28;19938;-72
2023/03/09 04:21:47;;;;;;;;;;;8.10;99.90;;;;;;4946516;28;19927;-72
2023/03/09 04:24:16;;;;;;;;;;;8.10;99.90;;;;;;4942611;28;20049;-72
2023/03/09 04:26:44;;;;;;;;;;;8.10;99.90;;;;;;4945074;28;19934;-71
2023/03/09 04:29:34;;;;;;;;;;;8.00;99.90;;;;;;4940237;28;19942;-72
2023/03/09 04:32:01;;;;;;;;;;;8.10;99.90;;;;;;4941833;28;19927;-71
2023/03/09 04:34:29;;;;;;;;;;;8.00;99.90;;;;;;4950505;28;19930;-71
2023/03/09 04:36:57;;;;;;;;;;;8.00;99.90;;;;;;4948436;28;19981;-71
2023/03/09 04:39:25;;;;;;;;;;;8.00;99.90;;;;;;4956625;28;19934;-72
2023/03/09 04:41:54;;;;;;;;;;;8.00;99.90;;;;;;4943011;28;19935;-71
2023/03/09 04:44:21;;;;;;;;;;;8.10;99.90;;;;;;4947037;28;20340;-72
2023/03/09 04:46:48;;;;;;;;;;;8.10;99.90;;;;;;4962541;28;19926;-72
2023/03/09 04:49:15;;;;;;;;;;;8.10;99.90;;;;;;4941897;28;20503;-72
2023/03/09 04:51:43;;;;;;;;;;;8.10;99.90;;;;;;4942335;28;19942;-71
2023/03/09 04:54:11;;;;;;;;;;;8.10;99.90;;;;;;4962855;28;20214;-72
2023/03/09 04:56:38;;;;;;;;;;;8.10;99.90;;;;;;4961006;28;19937;-72
2023/03/09 04:59:12;;;;;;;;;;;8.10;99.90;;;;;;4952101;28;19973;-71
2023/03/09 05:01:39;;;;;;;;;;;8.00;99.90;;;;;;4948331;28;19959;-72
2023/03/09 05:04:11;;;;;;;;;;;8.00;99.90;;;;;;4947694;28;20336;-72
2023/03/09 05:06:44;;;;;;;;;;;8.00;99.90;;;;;;4962177;28;19931;-71
2023/03/09 05:09:11;;;;;;;;;;;8.00;99.90;;;;;;4962326;28;19926;-72
2023/03/09 05:11:39;;;;;;;;;;;8.00;99.90;;;;;;4960576;28;21243;-73
2023/03/09 05:14:06;;;;;;;;;;;8.00;99.90;;;;;;4946953;28;20008;-70
2023/03/09 05:16:35;;;;;;;;;;;8.00;99.90;;;;;;4961433;28;19970;-71
2023/03/09 05:19:02;;;;;;;;;;;8.00;99.90;;;;;;4951364;28;19958;-72
2023/03/09 05:21:35;;;;;;;;;;;8.00;99.90;;;;;;4946419;28;19950;-71
2023/03/09 05:24:06;;;;;;;;;;;8.00;99.90;;;;;;4948053;28;19974;-73
2023/03/09 05:26:32;;;;;;;;;;;8.00;99.90;;;;;;4942591;28;20420;-71
2023/03/09 05:29:00;;;;;;;;;;;8.00;99.90;;;;;;4947976;28;19934;-72
2023/03/09 05:31:27;;;;;;;;;;;8.00;99.90;;;;;;4933444;28;19926;-71
2023/03/09 05:33:55;;;;;;;;;;;7.90;99.90;;;;;;4941749;28;20621;-71
2023/03/09 05:36:23;;;;;;;;;;;7.90;99.90;;;;;;4958637;28;19930;-73
2023/03/09 05:38:52;;;;;;;;;;;7.90;99.90;;;;;;4938857;28;19935;-71
2023/03/09 05:41:20;;;;;;;;;;;7.90;99.90;;;;;;4960956;28;19934;-72
2023/03/09 05:43:52;;;;;;;;;;;7.90;99.90;;;;;;4936502;28;19930;-73
2023/03/09 05:46:19;;;;;;;;;;;7.90;99.90;;;;;;4940916;28;19926;-71
2023/03/09 05:48:47;;;;;;;;;;;7.90;99.90;;;;;;4942941;28;19941;-71
2023/03/09 05:51:15;;;;;;;;;;;7.90;99.90;;;;;;4959151;28;19926;-71
2023/03/09 05:53:42;;;;;;;;;;;7.90;99.90;;;;;;4961513;28;19934;-76
2023/03/09 05:56:11;;;;;;;;;;;7.90;99.90;;;;;;4939846;28;21538;-70
2023/03/09 05:58:38;;;;;;;;;;;7.90;99.90;;;;;;4962923;28;20396;-71
2023/03/09 06:01:06;;;;;;;;;;;7.90;99.90;;;;;;4958174;28;19982;-70
2023/03/09 06:03:34;;;;;;;;;;;7.90;99.90;;;;;;4956067;28;19935;-71
2023/03/09 06:06:04;;;;;;;;;;;7.90;99.90;;;;;;4945766;28;19926;-72
2023/03/09 06:08:35;;;;;;;;;;;7.90;99.90;;;;;;4955900;28;20399;-73
2023/03/09 06:11:09;;;;;;;;;;;7.90;99.90;;;;;;4952470;28;19942;-74
2023/03/09 06:13:36;;;;;;;;;;;7.90;99.90;;;;;;4955998;28;19926;-73
2023/03/09 06:16:05;;;;;;;;;;;7.90;99.90;;;;;;4944435;28;20354;-72
2023/03/09 06:18:32;;;;;;;;;;;7.90;99.90;;;;;;4950946;28;20025;-72
2023/03/09 06:21:02;;;;;;;;;;;7.90;99.90;;;;;;4953579;28;20356;-72
2023/03/09 06:23:29;;;;;;;;;;;7.90;99.90;;;;;;4953771;28;19927;-71
2023/03/09 06:25:57;;;;;;;;;;;7.90;99.90;;;;;;4942748;28;19926;-72
2023/03/09 06:28:25;;;;;;;;;;;7.80;99.90;;;;;;4959921;28;19961;-72
2023/03/09 06:30:52;;;;;;;;;;;7.90;99.90;;;;;;4950119;28;19934;-72
2023/03/09 06:33:19;;;;;;;;;;;7.90;99.90;;;;;;4969011;28;19934;-72
2023/03/09 06:35:51;;;;;;;;;;;7.80;99.90;;;;;;4950905;28;20316;-72
2023/03/09 06:38:19;;;;;;;;;;;7.80;99.90;;;;;;4946122;28;19934;-72
2023/03/09 06:40:48;;;;;;;;;;;7.80;99.90;;;;;;4963037;28;19927;-72
2023/03/09 06:43:17;;;;;;;;;;;7.80;99.90;;;;;;4949126;28;19932;-72
2023/03/09 06:45:45;;;;;;;;;;;7.80;99.90;;;;;;4950179;28;19934;-72
2023/03/09 06:48:13;;;;;;;;;;;7.80;99.90;;;;;;4946965;28;20345;-72
2023/03/09 06:50:41;;;;;;;;;;;7.80;99.90;;;;;;4951592;28;20293;-72
2023/03/09 06:53:10;;;;;;;;;;;7.80;99.90;;;;;;4964829;28;19930;-72
2023/03/09 06:55:38;;;;;;;;;;;7.80;99.90;;;;;;4952462;28;19926;-72
2023/03/09 06:58:04;;;;;;;;;;;7.80;99.90;;;;;;4947985;28;19990;-72
2023/03/09 07:00:37;;;;;;;;;;;7.80;99.90;;;;;;4950220;28;20161;-72
2023/03/09 07:03:04;;;;;;;;;;;7.80;99.90;;;;;;4958085;28;19945;-72
2023/03/09 07:05:32;;;;;;;;;;;7.80;99.90;;;;;;4951479;28;20426;-72
2023/03/09 07:08:00;;;;;;;;;;;7.80;99.90;;;;;;4949748;28;20025;-72
2023/03/09 07:10:27;;;;;;;;;;;7.80;99.90;;;;;;4951175;28;20017;-72
2023/03/09 07:12:53;;;;;;;;;;;7.80;99.90;;;;;;4947544;28;19977;-72
2023/03/09 07:15:20;;;;;;;;;;;7.80;99.90;;;;;;4950895;28;19969;-72
2023/03/09 07:17:48;;;;;;;;;;;7.80;99.90;;;;;;4951233;28;20422;-72
2023/03/09 07:20:15;;;;;;;;;;;7.80;99.90;;;;;;4949494;28;19981;-72
2023/03/09 07:22:42;;;;;;;;;;;7.80;99.90;;;;;;4947422;28;19926;-72
2023/03/09 07:25:09;;;;;;;;;;;7.90;99.90;;;;;;4951369;28;19926;-71
2023/03/09 07:27:36;;;;;;;;;;;7.90;99.90;;;;;;4962857;28;19950;-72
2023/03/09 07:30:03;;;;;;;;;;;7.90;99.90;;;;;;4946622;28;19989;-72
2023/03/09 07:32:31;;;;;;;;;;;7.90;99.90;;;;;;4948826;28;19966;-72
2023/03/09 07:34:59;;;;;;;;;;;7.90;99.90;;;;;;4947157;28;19981;-72
2023/03/09 07:37:25;;;;;;;;;;;7.90;99.90;;;;;;4951355;28;23001;-71
2023/03/09 07:39:52;;;;;;;;;;;7.90;99.90;;;;;;4951243;28;19934;-72
2023/03/09 07:42:19;;;;;;;;;;;7.90;99.90;;;;;;4950380;28;19974;-72
2023/03/09 07:45:00;;;;;;;;;;;7.90;99.90;;;;;;4955091;28;19997;-72
2023/03/09 07:47:27;;;;;;;;;;;7.90;99.90;;;;;;4961018;28;19958;-72
2023/03/09 07:49:54;;;;;;;;;;;7.90;99.90;;;;;;4954240;28;19958;-72
2023/03/09 07:52:22;;;;;;;;;;;7.90;99.90;;;;;;4947324;28;19933;-72
2023/03/09 07:54:50;;;;;;;;;;;7.90;99.90;;;;;;4956076;28;20014;-72
2023/03/09 07:57:18;;;;;;;;;;;7.90;99.90;;;;;;4956233;28;19935;-72
2023/03/09 07:59:45;;;;;;;;;;;7.90;99.90;;;;;;4950228;28;19961;-72
2023/03/09 08:02:12;;;;;;;;;;;7.90;99.90;;;;;;4971505;28;20021;-72
2023/03/09 08:04:39;;;;;;;;;;;7.90;99.90;;;;;;4951306;28;19949;-72
2023/03/09 08:07:06;;;;;;;;;;;7.90;99.90;;;;;;4948187;28;20017;-72
2023/03/09 08:09:34;;;;;;;;;;;8.00;99.90;;;;;;4953086;28;19926;-72
2023/03/09 08:12:01;;;;;;;;;;;7.90;99.90;;;;;;4951180;28;20013;-72
2023/03/09 08:14:27;;;;;;;;;;;7.90;99.90;;;;;;4951277;28;20002;-72
2023/03/09 08:16:54;;;;;;;;;;;7.90;99.90;;;;;;4963211;28;19930;-72
2023/03/09 08:19:21;;;;;;;;;;;7.90;99.90;;;;;;4952259;28;19937;-71
2023/03/09 08:21:48;;;;;;;;;;;8.00;99.90;;;;;;4950676;28;20370;-71
2023/03/09 08:24:15;;;;;;;;;;;8.00;99.90;;;;;;4951922;28;20566;-71
2023/03/09 08:26:43;;;;;;;;;;;8.00;99.90;;;;;;4948509;28;19935;-71
2023/03/09 08:29:10;;;;;;;;;;;8.00;99.90;;;;;;4968968;28;20307;-71
2023/03/09 08:31:37;;;;;;;;;;;8.00;99.90;;;;;;4950556;28;19982;-72
2023/03/09 08:34:04;;;;;;;;;;;8.00;99.90;;;;;;4951639;28;19926;-71
2023/03/09 08:36:31;;;;;;;;;;;8.00;99.90;;;;;;4954593;28;20020;-71
2023/03/09 08:38:58;;;;;;;;;;;8.10;99.90;;;;;;4950782;28;19927;-71
2023/03/09 08:41:25;;;;;;;;;;;8.10;99.90;;;;;;4952101;28;20419;-71
2023/03/09 08:43:54;;;;;;;;;;;8.10;99.90;;;;;;4949737;28;19941;-71
2023/03/09 08:46:21;;;;;;;;;;;8.10;99.90;;;;;;4950427;28;20439;-71
2023/03/09 08:48:49;;;;;;;;;;;8.10;99.90;;;;;;4951109;28;19957;-71
2023/03/09 08:51:15;;;;;;;;;;;8.10;99.90;;;;;;4945655;28;19926;-71
2023/03/09 08:53:42;;;;;;;;;;;8.10;99.90;;;;;;4953890;28;20452;-71
2023/03/09 08:56:10;;;;;;;;;;;8.20;99.90;;;;;;4950326;28;19977;-71
2023/03/09 08:58:38;;;;;;;;;;;8.20;99.90;;;;;;4954751;28;19957;-71
2023/03/09 09:01:08;;;;;;;;;;;8.20;99.90;;;;;;4950492;28;20456;-71
2023/03/09 09:03:35;;;;;;;;;;;8.20;99.90;;;;;;4949327;28;19934;-72
2023/03/09 09:06:03;;;;;;;;;;;8.30;99.90;;;;;;4935882;28;19962;-71
2023/03/09 09:08:30;;;;;;;;;;;8.30;99.90;;;;;;4945312;28;19966;-71
2023/03/09 09:10:57;;;;;;;;;;;8.30;99.90;;;;;;4950085;28;20025;-71
2023/03/09 09:13:24;;;;;;;;;;;8.40;99.90;;;;;;4949708;28;19926;-71
2023/03/09 09:15:52;;;;;;;;;;;8.40;99.90;;;;;;4943938;28;19981;-71
2023/03/09 09:18:21;;;;;;;;;;;8.40;99.90;;;;;;4946427;28;19930;-71
2023/03/09 09:20:48;;;;;;;;;;;8.40;99.90;;;;;;4954579;28;19961;-71
2023/03/09 09:23:14;;;;;;;;;;;8.50;99.90;;;;;;4947347;28;19933;-71
2023/03/09 09:25:41;;;;;;;;;;;8.50;99.90;;;;;;4951600;28;19925;-71
2023/03/09 09:28:08;;;;;;;;;;;8.50;99.90;;;;;;4951639;28;19933;-71
2023/03/09 09:30:36;;;;;;;;;;;8.50;99.90;;;;;;4951697;28;20033;-71
2023/03/09 09:33:04;;;;;;;;;;;8.50;99.90;;;;;;4964690;28;19934;-71
2023/03/09 09:35:32;;;;;;;;;;;8.50;99.90;;;;;;4968805;28;20021;-71
2023/03/09 09:38:00;;;;;;;;;;;8.50;99.90;;;;;;4959019;28;19934;-71
2023/03/09 09:40:27;;;;;;;;;;;8.60;99.90;;;;;;4947097;28;19979;-71
2023/03/09 09:42:55;;;;;;;;;;;8.60;99.90;;;;;;4949767;28;20021;-71
2023/03/09 09:45:25;;;;;;;;;;;8.60;99.90;;;;;;4951664;28;20456;-71
2023/03/09 09:47:52;;;;;;;;;;;8.70;99.90;;;;;;4960095;28;20393;-71
2023/03/09 09:50:20;;;;;;;;;;;8.70;99.90;;;;;;4949187;28;20332;-71
2023/03/09 09:52:52;;;;;;;;;;;8.70;99.90;;;;;;4952153;28;19931;-71
2023/03/09 09:55:20;;;;;;;;;;;8.70;99.90;;;;;;4949220;28;19930;-71
2023/03/09 09:57:49;;;;;;;;;;;8.70;99.90;;;;;;4946455;28;19955;-71
2023/03/09 10:00:19;;;;;;;;;;;8.70;99.90;;;;;;4949461;28;20364;-71
2023/03/09 10:02:54;;;;;;;;;;;8.80;99.90;;;;;;4965403;28;19927;-71
2023/03/09 10:05:25;;;;;;;;;;;8.80;99.90;;;;;;4944559;28;20268;-71
2023/03/09 10:07:56;;;;;;;;;;;8.80;99.90;;;;;;4949654;28;19977;-71
2023/03/09 10:10:25;;;;;;;;;;;8.80;99.90;;;;;;4951600;28;19936;-71
2023/03/09 10:12:52;;;;;;;;;;;8.80;99.90;;;;;;4949169;28;19941;-71
2023/03/09 10:15:22;;;;;;;;;;;8.90;99.90;;;;;;4947775;28;19999;-71
2023/03/09 10:17:52;;;;;;;;;;;8.90;99.90;;;;;;4955447;28;19927;-71
2023/03/09 10:20:22;;;;;;;;;;;8.90;99.90;;;;;;4947467;28;19942;-71
2023/03/09 10:22:50;;;;;;;;;;;8.90;99.90;;;;;;4954968;28;19926;-71
2023/03/09 10:25:20;;;;;;;;;;;9.00;99.90;;;;;;4947948;28;20419;-71
2023/03/09 10:27:54;;;;;;;;;;;9.10;99.90;;;;;;4952073;28;20017;-71
2023/03/09 10:30:22;;;;;;;;;;;9.10;99.90;;;;;;4949607;28;19981;-71
2023/03/09 10:32:52;;;;;;;;;;;9.10;99.90;;;;;;4945722;28;19933;-70
2023/03/09 10:35:20;;;;;;;;;;;9.10;99.90;;;;;;4954723;28;20340;-71
2023/03/09 10:37:48;;;;;;;;;;;9.10;99.90;;;;;;4951615;28;19989;-71
2023/03/09 10:40:18;;;;;;;;;;;9.20;99.90;;;;;;4945342;28;19927;-71
2023/03/09 10:42:46;;;;;;;;;;;9.20;99.90;;;;;;4967487;28;20403;-71
2023/03/09 10:45:20;;;;;;;;;;;9.20;99.90;;;;;;4951731;28;20018;-71
2023/03/09 10:47:54;;;;;;;;;;;9.20;99.90;;;;;;4950832;28;19981;-71
2023/03/09 10:50:22;;;;;;;;;;;9.20;99.90;;;;;;4952341;28;20455;-71
2023/03/09 10:52:49;;;;;;;;;;;9.20;99.90;;;;;;4946208;28;20005;-72
2023/03/09 10:55:30;;;;;;;;;;;9.20;99.90;;;;;;4950455;28;19934;-72
2023/03/09 10:57:59;;;;;;;;;;;9.30;99.90;;;;;;4947113;28;19953;-71
2023/03/09 11:00:26;;;;;;;;;;;9.30;99.90;;;;;;4947816;28;19927;-71
2023/03/09 11:02:54;;;;;;;;;;;9.40;99.90;;;;;;4954727;28;19935;-71
2023/03/09 11:05:21;;;;;;;;;;;9.40;99.90;;;;;;4949014;28;19935;-71
2023/03/09 11:07:53;;;;;;;;;;;9.50;99.90;;;;;;4947403;28;19937;-71
2023/03/09 11:10:21;;;;;;;;;;;9.50;99.90;;;;;;4950943;28;19986;-71
2023/03/09 11:12:49;;;;;;;;;;;9.50;99.90;;;;;;4968047;28;20413;-71
2023/03/09 11:15:27;;;;;;;;;;;9.50;99.90;;;;;;4953396;28;19965;-71
2023/03/09 11:17:55;;;;;;;;;;;9.50;99.90;;;;;;4954253;28;19931;-71
2023/03/09 11:20:32;;;;;;;;;;;9.50;99.90;;;;;;4957029;28;20017;-72
2023/03/09 11:23:00;;;;;;;;;;;9.50;99.90;;;;;;4953007;28;19926;-71
2023/03/09 11:25:40;;;;;;;;;;;9.50;99.90;;;;;;4952411;28;19965;-71
2023/03/09 11:28:12;;;;;;;;;;;9.50;99.90;;;;;;4957135;28;19975;-71
2023/03/09 11:30:41;;;;;;;;;;;9.50;99.90;;;;;;4962691;28;19981;-71
2023/03/09 11:33:09;;;;;;;;;;;9.50;99.90;;;;;;4948252;28;20174;-71
2023/03/09 11:35:36;;;;;;;;;;;9.50;99.90;;;;;;4954785;28;19962;-71
2023/03/09 11:38:06;;;;;;;;;;;9.50;99.90;;;;;;4955085;28;19934;-70
2023/03/09 11:40:33;;;;;;;;;;;9.50;99.90;;;;;;4950328;28;19994;-71
2023/03/09 11:43:01;;;;;;;;;;;9.50;99.90;;;;;;4953513;28;20417;-71
2023/03/09 11:45:30;;;;;;;;;;;9.60;99.90;;;;;;4969892;28;19973;-71
2023/03/09 11:48:01;;;;;;;;;;;9.60;99.90;;;;;;4953781;28;20400;-71
2023/03/09 11:50:30;;;;;;;;;;;9.60;99.90;;;;;;4947574;28;19965;-71
2023/03/09 11:52:59;;;;;;;;;;;9.60;99.90;;;;;;4950590;28;20423;-71
2023/03/09 11:55:29;;;;;;;;;;;9.60;99.90;;;;;;4950310;28;20025;-71
2023/03/09 11:58:00;;;;;;;;;;;9.60;99.90;;;;;;4952869;28;20006;-71
2023/03/09 12:00:28;;;;;;;;;;;9.70;99.90;;;;;;4952501;28;19934;-71
2023/03/09 12:02:59;;;;;;;;;;;9.70;99.90;;;;;;4957429;28;19942;-71
2023/03/09 12:05:27;;;;;;;;;;;9.70;99.90;;;;;;4968926;28;19966;-71
2023/03/09 12:07:58;;;;;;;;;;;9.70;99.90;;;;;;4966636;28;19931;-71
2023/03/09 12:10:28;;;;;;;;;;;9.70;99.90;;;;;;4955418;28;19926;-71
2023/03/09 12:12:57;;;;;;;;;;;9.80;99.90;;;;;;4956376;28;19934;-71
2023/03/09 12:15:28;;;;;;;;;;;9.80;99.90;;;;;;4955170;28;19927;-71
2023/03/09 12:17:57;;;;;;;;;;;9.80;99.90;;;;;;4968108;28;19926;-71
2023/03/09 12:20:29;;;;;;;;;;;9.80;99.90;;;;;;4949763;28;19938;-71
2023/03/09 12:22:56;;;;;;;;;;;9.80;99.90;;;;;;4947641;28;19931;-72
2023/03/09 12:25:24;;;;;;;;;;;9.80;99.90;;;;;;4950089;28;20432;-71
2023/03/09 12:27:52;;;;;;;;;;;9.80;99.90;;;;;;4953360;28;20352;-71
2023/03/09 12:30:21;;;;;;;;;;;9.80;99.90;;;;;;4956954;28;19935;-71
2023/03/09 12:32:48;;;;;;;;;;;9.80;99.90;;;;;;4945770;28;19960;-71
2023/03/09 12:35:42;;;;;;;;;;;9.90;99.90;;;;;;4954727;28;19948;-71
2023/03/09 12:38:27;;;;;;;;;;;9.90;99.90;;;;;;4951491;28;19927;-72
2023/03/09 12:40:56;;;;;;;;;;;9.90;99.90;;;;;;4962181;28;19926;-71
2023/03/09 12:43:52;;;;;;;;;;;9.90;99.90;;;;;;4952858;28;19936;-71
2023/03/09 12:46:38;;;;;;;;;;;9.90;99.90;;;;;;4956624;28;20319;-71
2023/03/09 12:49:12;;;;;;;;;;;10.00;99.90;;;;;;4951361;28;20313;-71
2023/03/09 12:51:39;;;;;;;;;;;10.00;99.90;;;;;;4947461;28;19997;-71
2023/03/09 12:54:18;;;;;;;;;;;10.00;99.90;;;;;;4952341;28;20033;-71
2023/03/09 12:56:46;;;;;;;;;;;10.10;99.90;;;;;;4952824;28;19966;-71
2023/03/09 12:59:16;;;;;;;;;;;10.10;99.90;;;;;;4954580;28;20388;-71
2023/03/09 13:01:43;;;;;;;;;;;10.10;99.90;;;;;;4947385;28;19978;-71
2023/03/09 13:04:12;;;;;;;;;;;10.10;99.90;;;;;;4951456;28;19926;-71
2023/03/09 13:06:39;;;;;;;;;;;10.10;99.90;;;;;;4952755;28;19930;-71
2023/03/09 13:09:17;;;;;;;;;;;10.10;99.90;;;;;;4947305;28;20001;-72
2023/03/09 13:11:44;;;;;;;;;;;10.10;99.90;;;;;;4951414;28;20381;-71
2023/03/09 13:14:15;;;;;;;;;;;10.10;99.90;;;;;;4950059;28;20424;-71
2023/03/09 13:16:52;;;;;;;;;;;10.10;99.90;;;;;;4948223;28;20316;-71
2023/03/09 13:19:42;;;;;;;;;;;10.10;99.90;;;;;;4963968;28;19989;-71
2023/03/09 13:22:19;;;;;;;;;;;10.10;99.90;;;;;;4948825;28;20361;-71
2023/03/09 13:24:47;;;;;;;;;;;10.10;99.90;;;;;;4949191;28;19985;-71
2023/03/09 13:27:16;;;;;;;;;;;10.20;99.90;;;;;;4948606;28;19957;-71
2023/03/09 13:29:46;;;;;;;;;;;10.20;99.90;;;;;;4952933;28;19926;-72
2023/03/09 13:32:19;;;;;;;;;;;10.20;99.90;;;;;;4950533;28;19950;-71
2023/03/09 13:34:49;;;;;;;;;;;10.20;99.90;;;;;;4947575;28;19941;-71
2023/03/09 13:37:17;;;;;;;;;;;10.20;99.90;;;;;;4954698;28;20021;-71
2023/03/09 13:39:56;;;;;;;;;;;10.20;99.90;;;;;;4949644;28;19927;-71
2023/03/09 13:42:23;;;;;;;;;;;10.20;99.90;;;;;;4946351;28;20377;-71
2023/03/09 13:44:53;;;;;;;;;;;10.20;99.90;;;;;;4949088;28;20356;-71
2023/03/09 13:47:22;;;;;;;;;;;10.30;99.90;;;;;;4954500;28;20400;-71
2023/03/09 13:49:49;;;;;;;;;;;10.30;99.90;;;;;;4947498;28;19931;-71
2023/03/09 13:52:18;;;;;;;;;;;10.30;99.90;;;;;;4948231;28;19980;-71
2023/03/09 13:54:48;;;;;;;;;;;10.30;99.90;;;;;;4948275;28;19933;-71
2023/03/09 13:57:16;;;;;;;;;;;10.30;99.90;;;;;;4943814;28;19934;-72
2023/03/09 13:59:46;;;;;;;;;;;10.30;99.90;;;;;;4951534;28;20017;-71
2023/03/09 14:02:14;;;;;;;;;;;10.30;99.90;;;;;;4966110;28;20278;-71
2023/03/09 14:04:44;;;;;;;;;;;10.30;99.90;;;;;;4948276;28;19961;-71
2023/03/09 14:07:13;;;;;;;;;;;10.30;99.90;;;;;;4948679;28;19933;-71
2023/03/09 14:09:40;;;;;;;;;;;10.40;99.90;;;;;;4968467;28;19934;-71
2023/03/09 14:12:17;;;;;;;;;;;10.40;99.90;;;;;;4947755;28;21268;-71
2023/03/09 14:14:45;;;;;;;;;;;10.50;99.90;;;;;;4947020;28;19930;-70
2023/03/09 14:17:17;;;;;;;;;;;10.50;99.90;;;;;;4953319;28;19989;-71
2023/03/09 14:19:44;;;;;;;;;;;10.60;99.90;;;;;;4966261;28;19926;-71
2023/03/09 14:22:17;;;;;;;;;;;10.70;99.90;;;;;;4947926;28;19934;-71
2023/03/09 14:24:44;;;;;;;;;;;10.80;99.90;;;;;;4965236;28;20037;-73
2023/03/09 14:27:11;;;;;;;;;;;10.80;99.90;;;;;;4953395;28;20404;-71
2023/03/09 14:29:38;;;;;;;;;;;10.80;99.90;;;;;;4946682;28;19958;-71
2023/03/09 14:32:20;;;;;;;;;;;10.90;99.90;;;;;;4948472;28;20685;-71
2023/03/09 14:34:47;;;;;;;;;;;10.90;99.90;;;;;;4950798;28;19941;-72
2023/03/09 14:37:18;;;;;;;;;;;10.90;99.90;;;;;;4946185;28;19926;-72
2023/03/09 14:39:45;;;;;;;;;;;10.90;99.90;;;;;;4944764;28;19930;-71